Time,TemperatureF,DewpointF,PressureIn,WindDirection,WindDirectionDegrees,WindSpeedMPH,WindSpeedGustMPH,Humidity,HourlyPrecipIn,Conditions,Clouds,dailyrainin,SoftwareType,DateUTC
2013-11-25 00:01:00,34.5,27.0,30.38,East,101,0.0,2.0,75,0.00,,,0.00,weatherlink.com 1.10,2013-11-25 06:01:00,
2013-11-25 00:16:00,34.5,27.0,30.38,ESE,113,0.0,0.0,75,0.00,,,0.00,weatherlink.com 1.10,2013-11-25 06:16:00,
2013-11-25 00:31:00,34.5,28.0,30.37,ESE,110,0.0,2.0,76,0.00,,,0.00,weatherlink.com 1.10,2013-11-25 06:31:00,
2013-11-25 00:46:00,34.6,28.0,30.37,ESE,116,2.0,4.0,76,0.00,,,0.00,weatherlink.com 1.10,2013-11-25 06:46:00,
2013-11-25 01:01:00,34.5,29.0,30.36,ESE,105,0.0,1.0,79,0.01,,,0.01,weatherlink.com 1.10,2013-11-25 07:01:00,
2013-11-25 01:16:00,33.5,30.0,30.34,SE,124,1.0,3.0,85,0.03,,,0.03,weatherlink.com 1.10,2013-11-25 07:16:00,
2013-11-25 01:31:00,33.1,30.0,30.33,East,101,0.0,3.0,88,0.05,,,0.05,weatherlink.com 1.10,2013-11-25 07:31:00,
2013-11-25 01:46:00,32.9,30.0,30.34,East,88,0.0,0.0,90,0.08,,,0.08,weatherlink.com 1.10,2013-11-25 07:46:00,
2013-11-25 02:01:00,33.0,31.0,30.34,ESE,108,0.0,1.0,91,0.10,,,0.11,weatherlink.com 1.10,2013-11-25 08:01:00,
2013-11-25 02:16:00,32.9,31.0,30.35,SSE,158,0.0,1.0,91,0.11,,,0.14,weatherlink.com 1.10,2013-11-25 08:16:00,
2013-11-25 02:31:00,32.8,31.0,30.34,ESE,109,0.0,1.0,92,0.09,,,0.15,weatherlink.com 1.10,2013-11-25 08:31:00,
2013-11-25 02:46:00,32.7,31.0,30.32,ESE,116,2.0,2.0,92,0.10,,,0.18,weatherlink.com 1.10,2013-11-25 08:46:00,
2013-11-25 03:01:00,32.6,31.0,30.31,East,94,2.0,4.0,92,0.12,,,0.23,weatherlink.com 1.10,2013-11-25 09:01:00,
2013-11-25 03:16:00,32.4,31.0,30.32,East,99,0.0,4.0,93,0.12,,,0.26,weatherlink.com 1.10,2013-11-25 09:16:00,
2013-11-25 03:31:00,32.3,31.0,30.33,SSE,167,0.0,1.0,93,0.13,,,0.28,weatherlink.com 1.10,2013-11-25 09:31:00,
2013-11-25 03:46:00,32.2,30.0,30.33,East,96,0.0,3.0,92,0.11,,,0.29,weatherlink.com 1.10,2013-11-25 09:46:00,
2013-11-25 04:01:00,32.3,31.0,30.32,East,96,0.0,1.0,93,0.06,,,0.29,weatherlink.com 1.10,2013-11-25 10:01:00,
2013-11-25 04:16:00,32.3,31.0,30.31,NNE,17,0.0,1.0,93,0.06,,,0.32,weatherlink.com 1.10,2013-11-25 10:16:00,
2013-11-25 04:31:00,32.4,31.0,30.30,East,84,0.0,4.0,93,0.08,,,0.36,weatherlink.com 1.10,2013-11-25 10:31:00,
2013-11-25 04:46:00,32.4,31.0,30.31,ENE,75,0.0,1.0,94,0.11,,,0.40,weatherlink.com 1.10,2013-11-25 10:46:00,
2013-11-25 05:01:00,32.4,31.0,30.31,ENE,59,0.0,2.0,94,0.15,,,0.44,weatherlink.com 1.10,2013-11-25 11:01:00,
2013-11-25 05:16:00,32.3,31.0,30.30,ENE,66,0.0,2.0,94,0.17,,,0.49,weatherlink.com 1.10,2013-11-25 11:16:00,
2013-11-25 05:31:00,32.4,31.0,30.29,NNE,33,4.0,5.0,94,0.18,,,0.54,weatherlink.com 1.10,2013-11-25 11:31:00,
2013-11-25 05:46:00,32.4,31.0,30.30,East,91,2.0,2.0,94,0.14,,,0.54,weatherlink.com 1.10,2013-11-25 11:46:00,
2013-11-25 06:01:00,32.5,31.0,30.30,East,98,1.0,4.0,94,0.11,,,0.55,weatherlink.com 1.10,2013-11-25 12:01:00,
2013-11-25 06:16:00,32.7,31.0,30.29,ESE,102,1.0,5.0,94,0.06,,,0.55,weatherlink.com 1.10,2013-11-25 12:16:00,
2013-11-25 06:31:00,32.7,31.0,30.29,East,98,3.0,8.0,94,0.04,,,0.58,weatherlink.com 1.10,2013-11-25 12:31:00,
2013-11-25 06:46:00,32.8,31.0,30.29,East,93,2.0,4.0,94,0.05,,,0.60,weatherlink.com 1.10,2013-11-25 12:46:00,
2013-11-25 07:01:00,32.7,31.0,30.29,East,86,1.0,3.0,94,0.06,,,0.61,weatherlink.com 1.10,2013-11-25 13:01:00,
2013-11-25 07:16:00,32.8,32.0,30.30,ENE,63,0.0,2.0,95,0.07,,,0.62,weatherlink.com 1.10,2013-11-25 13:16:00,
2013-11-25 07:31:00,32.8,32.0,30.30,East,91,0.0,1.0,95,0.05,,,0.63,weatherlink.com 1.10,2013-11-25 13:31:00,
2013-11-25 07:46:00,32.9,32.0,30.28,ESE,105,5.0,5.0,95,0.03,,,0.63,weatherlink.com 1.10,2013-11-25 13:46:00,
2013-11-25 08:01:00,32.9,32.0,30.28,ENE,68,1.0,4.0,95,0.04,,,0.65,weatherlink.com 1.10,2013-11-25 14:01:00,
2013-11-25 08:17:00,33.1,32.0,30.29,ESE,103,2.0,5.0,95,0.02,,,0.65,weatherlink.com 1.10,2013-11-25 14:17:00,
2013-11-25 08:31:00,33.2,32.0,30.29,East,82,2.0,4.0,95,0.03,,,0.66,weatherlink.com 1.10,2013-11-25 14:31:00,
2013-11-25 08:46:00,33.4,32.0,30.29,ENE,77,3.0,5.0,95,0.03,,,0.66,weatherlink.com 1.10,2013-11-25 14:46:00,
2013-11-25 09:01:00,33.7,33.0,30.30,ESE,115,3.0,4.0,95,0.02,,,0.67,weatherlink.com 1.10,2013-11-25 15:01:00,
2013-11-25 09:16:00,33.9,33.0,30.30,ENE,65,6.0,7.0,95,0.02,,,0.67,weatherlink.com 1.10,2013-11-25 15:16:00,
2013-11-25 09:31:00,34.1,33.0,30.30,ENE,72,3.0,5.0,95,0.01,,,0.67,weatherlink.com 1.10,2013-11-25 15:31:00,
2013-11-25 09:46:00,34.2,33.0,30.29,ENE,78,2.0,6.0,94,0.01,,,0.67,weatherlink.com 1.10,2013-11-25 15:46:00,
2013-11-25 10:01:00,34.4,33.0,30.29,East,93,4.0,6.0,94,0.00,,,0.67,weatherlink.com 1.10,2013-11-25 16:01:00,
2013-11-25 10:16:00,34.8,33.0,30.28,ENE,71,2.0,5.0,94,0.00,,,0.67,weatherlink.com 1.10,2013-11-25 16:16:00,
2013-11-25 10:31:00,35.3,34.0,30.27,ENE,76,3.0,8.0,94,0.00,,,0.67,weatherlink.com 1.10,2013-11-25 16:31:00,
2013-11-25 10:47:00,35.6,34.0,30.27,East,89,2.0,11.0,94,0.00,,,0.67,weatherlink.com 1.10,2013-11-25 16:47:00,
2013-11-25 11:02:00,35.6,34.0,30.27,ESE,115,4.0,9.0,93,0.00,,,0.67,weatherlink.com 1.10,2013-11-25 17:02:00,
2013-11-25 11:17:00,35.8,34.0,30.26,ESE,109,9.0,9.0,93,0.00,,,0.67,weatherlink.com 1.10,2013-11-25 17:17:00,
2013-11-25 11:32:00,36.0,34.0,30.26,SE,134,3.0,7.0,93,0.00,,,0.67,weatherlink.com 1.10,2013-11-25 17:32:00,
2013-11-25 11:47:00,36.0,34.0,30.26,ESE,105,3.0,7.0,92,0.00,,,0.67,weatherlink.com 1.10,2013-11-25 17:47:00,
2013-11-25 12:02:00,36.2,34.0,30.25,East,101,3.0,6.0,92,0.00,,,0.67,weatherlink.com 1.10,2013-11-25 18:02:00,
2013-11-25 12:17:00,36.3,35.0,30.24,ESE,113,5.0,6.0,93,0.00,,,0.67,weatherlink.com 1.10,2013-11-25 18:17:00,
2013-11-25 12:32:00,36.2,34.0,30.23,ESE,110,3.0,7.0,93,0.00,,,0.67,weatherlink.com 1.10,2013-11-25 18:32:00,
2013-11-25 12:47:00,36.1,34.0,30.23,ESE,108,7.0,7.0,93,0.00,,,0.67,weatherlink.com 1.10,2013-11-25 18:47:00,
2013-11-25 13:02:00,36.3,35.0,30.22,ESE,113,3.0,6.0,94,0.00,,,0.67,weatherlink.com 1.10,2013-11-25 19:02:00,
2013-11-25 13:17:00,36.4,35.0,30.21,ESE,116,4.0,6.0,93,0.00,,,0.67,weatherlink.com 1.10,2013-11-25 19:17:00,
2013-11-25 13:32:00,36.5,35.0,30.21,East,79,1.0,4.0,93,0.00,,,0.67,weatherlink.com 1.10,2013-11-25 19:32:00,
2013-11-25 13:47:00,36.9,35.0,30.20,ENE,59,3.0,6.0,93,0.00,,,0.67,weatherlink.com 1.10,2013-11-25 19:47:00,
2013-11-25 14:02:00,36.8,35.0,30.20,ESE,110,3.0,6.0,93,0.00,,,0.67,weatherlink.com 1.10,2013-11-25 20:02:00,
2013-11-25 14:17:00,37.0,35.0,30.19,East,79,1.0,3.0,93,0.00,,,0.67,weatherlink.com 1.10,2013-11-25 20:17:00,
2013-11-25 14:32:00,37.1,35.0,30.20,NNE,24,4.0,4.0,92,0.00,,,0.67,weatherlink.com 1.10,2013-11-25 20:32:00,
2013-11-25 14:47:00,36.9,35.0,30.19,NNE,32,3.0,5.0,92,0.00,,,0.67,weatherlink.com 1.10,2013-11-25 20:47:00,
2013-11-25 15:02:00,37.1,35.0,30.19,NE,43,2.0,5.0,91,0.00,,,0.67,weatherlink.com 1.10,2013-11-25 21:02:00,
2013-11-25 15:17:00,37.0,35.0,30.18,NE,44,5.0,7.0,92,0.00,,,0.67,weatherlink.com 1.10,2013-11-25 21:17:00,
2013-11-25 15:32:00,37.1,35.0,30.18,ENE,71,2.0,10.0,91,0.00,,,0.67,weatherlink.com 1.10,2013-11-25 21:32:00,
2013-11-25 15:47:00,37.3,35.0,30.18,NE,39,3.0,7.0,90,0.00,,,0.67,weatherlink.com 1.10,2013-11-25 21:47:00,
2013-11-25 16:02:00,37.1,35.0,30.18,NNW,338,5.0,6.0,91,0.00,,,0.67,weatherlink.com 1.10,2013-11-25 22:02:00,
2013-11-25 16:17:00,37.2,35.0,30.18,NNW,340,6.0,7.0,90,0.00,,,0.67,weatherlink.com 1.10,2013-11-25 22:17:00,
2013-11-25 16:32:00,37.5,35.0,30.18,North,4,6.0,8.0,89,0.00,,,0.67,weatherlink.com 1.10,2013-11-25 22:32:00,
2013-11-25 16:47:00,37.4,35.0,30.16,NE,51,5.0,8.0,90,0.00,,,0.67,weatherlink.com 1.10,2013-11-25 22:47:00,
2013-11-25 17:02:00,37.3,35.0,30.17,NE,37,4.0,9.0,90,0.00,,,0.67,weatherlink.com 1.10,2013-11-25 23:02:00,
2013-11-25 17:17:00,37.2,35.0,30.18,NE,53,5.0,6.0,90,0.00,,,0.67,weatherlink.com 1.10,2013-11-25 23:17:00,
2013-11-25 17:32:00,37.2,35.0,30.19,NE,51,3.0,10.0,90,0.00,,,0.67,weatherlink.com 1.10,2013-11-25 23:32:00,
2013-11-25 17:47:00,37.1,35.0,30.17,North,351,5.0,8.0,90,0.00,,,0.67,weatherlink.com 1.10,2013-11-25 23:47:00,
2013-11-25 18:02:00,38.0,35.0,30.18,NNW,338,13.0,18.0,90,0.00,,,0.67,weatherlink.com 1.10,2013-11-26 00:02:00,
2013-11-25 18:17:00,38.3,36.0,30.18,NW,321,16.0,21.0,92,0.00,,,0.67,weatherlink.com 1.10,2013-11-26 00:17:00,
2013-11-25 18:32:00,38.0,35.0,30.18,NNW,336,14.0,21.0,90,0.00,,,0.67,weatherlink.com 1.10,2013-11-26 00:32:00,
2013-11-25 18:47:00,37.7,35.0,30.19,NNW,338,10.0,20.0,89,0.00,,,0.67,weatherlink.com 1.10,2013-11-26 00:47:00,
2013-11-25 19:02:00,37.8,35.0,30.20,NNW,346,15.0,18.0,90,0.00,,,0.67,weatherlink.com 1.10,2013-11-26 01:02:00,
2013-11-25 19:17:00,37.6,35.0,30.20,NNW,338,15.0,18.0,89,0.00,,,0.67,weatherlink.com 1.10,2013-11-26 01:17:00,
2013-11-25 19:32:00,37.7,35.0,30.20,North,353,16.0,20.0,89,0.00,,,0.67,weatherlink.com 1.10,2013-11-26 01:32:00,
2013-11-25 19:47:00,37.5,34.0,30.20,NNE,26,12.0,17.0,88,0.00,,,0.67,weatherlink.com 1.10,2013-11-26 01:47:00,
2013-11-25 20:02:00,37.5,35.0,30.21,NNE,23,10.0,18.0,89,0.00,,,0.67,weatherlink.com 1.10,2013-11-26 02:02:00,
2013-11-25 20:17:00,37.5,35.0,30.20,NW,325,11.0,19.0,89,0.00,,,0.67,weatherlink.com 1.10,2013-11-26 02:17:00,
2013-11-25 20:32:00,37.6,35.0,30.21,NNW,340,14.0,20.0,89,0.00,,,0.67,weatherlink.com 1.10,2013-11-26 02:32:00,
2013-11-25 20:47:00,37.6,35.0,30.21,NNW,332,16.0,18.0,90,0.00,,,0.67,weatherlink.com 1.10,2013-11-26 02:47:00,
2013-11-25 21:02:00,37.8,35.0,30.22,NNW,342,17.0,20.0,90,0.00,,,0.67,weatherlink.com 1.10,2013-11-26 03:02:00,
2013-11-25 21:18:00,37.6,35.0,30.23,NNE,20,9.0,18.0,90,0.00,,,0.67,weatherlink.com 1.10,2013-11-26 03:18:00,
2013-11-25 21:32:00,37.6,35.0,30.23,NNW,328,8.0,16.0,89,0.00,,,0.67,weatherlink.com 1.10,2013-11-26 03:32:00,
2013-11-25 21:47:00,37.6,35.0,30.23,NNW,340,14.0,17.0,89,0.00,,,0.67,weatherlink.com 1.10,2013-11-26 03:47:00,
2013-11-25 22:02:00,37.7,35.0,30.22,NW,325,9.0,17.0,90,0.00,,,0.67,weatherlink.com 1.10,2013-11-26 04:02:00,
2013-11-25 22:17:00,37.7,35.0,30.22,NNW,330,11.0,16.0,88,0.00,,,0.67,weatherlink.com 1.10,2013-11-26 04:17:00,
2013-11-25 22:32:00,38.0,35.0,30.21,NNW,331,19.0,19.0,89,0.00,,,0.67,weatherlink.com 1.10,2013-11-26 04:32:00,
2013-11-25 22:47:00,37.8,34.0,30.20,NNW,335,16.0,21.0,87,0.00,,,0.67,weatherlink.com 1.10,2013-11-26 04:47:00,
2013-11-25 23:02:00,37.9,35.0,30.20,NNW,337,20.0,22.0,90,0.00,,,0.67,weatherlink.com 1.10,2013-11-26 05:02:00,
2013-11-25 23:18:00,37.5,34.0,30.19,NNW,347,14.0,24.0,87,0.00,,,0.67,weatherlink.com 1.10,2013-11-26 05:18:00,
2013-11-25 23:33:00,37.5,34.0,30.20,NNW,345,20.0,25.0,87,0.00,,,0.67,weatherlink.com 1.10,2013-11-26 05:33:00,
2013-11-25 23:48:00,37.4,34.0,30.20,NNW,342,13.0,25.0,87,0.00,,,0.67,weatherlink.com 1.10,2013-11-26 05:48:00,